Map

Track Data

SID SEASON NUMBER BASIN SUBBASIN NAME ISO_TIME NATURE LAT LON WMO_WIND WMO_PRES WMO_AGENCY TRACK_TYPE DIST2LAND LANDFALL IFLAG USA_AGENCY USA_ATCF_ID USA_LAT USA_LON USA_RECORD USA_STATUS USA_WIND USA_PRES USA_SSHS USA_R34_NE USA_R34_SE USA_R34_SW USA_R34_NW USA_R50_NE USA_R50_SE USA_R50_SW USA_R50_NW USA_R64_NE USA_R64_SE USA_R64_SW USA_R64_NW USA_POCI USA_ROCI USA_RMW USA_EYE TOKYO_LAT TOKYO_LON TOKYO_GRADE TOKYO_WIND TOKYO_PRES TOKYO_R50_DIR TOKYO_R50_LONG TOKYO_R50_SHORT TOKYO_R30_DIR TOKYO_R30_LONG TOKYO_R30_SHORT TOKYO_LAND CMA_LAT CMA_LON CMA_CAT CMA_WIND CMA_PRES HKO_LAT HKO_LON HKO_CAT HKO_WIND HKO_PRES NEWDELHI_LAT NEWDELHI_LON NEWDELHI_GRADE NEWDELHI_WIND NEWDELHI_PRES NEWDELHI_CI NEWDELHI_DP NEWDELHI_POCI REUNION_LAT REUNION_LON REUNION_TYPE REUNION_WIND REUNION_PRES REUNION_TNUM REUNION_CI REUNION_RMW REUNION_R34_NE REUNION_R34_SE REUNION_R34_SW REUNION_R34_NW REUNION_R50_NE REUNION_R50_SE REUNION_R50_SW REUNION_R50_NW REUNION_R64_NE REUNION_R64_SE REUNION_R64_SW REUNION_R64_NW BOM_LAT BOM_LON BOM_TYPE BOM_WIND BOM_PRES BOM_TNUM BOM_CI BOM_RMW BOM_R34_NE BOM_R34_SE BOM_R34_SW BOM_R34_NW BOM_R50_NE BOM_R50_SE BOM_R50_SW BOM_R50_NW BOM_R64_NE BOM_R64_SE BOM_R64_SW BOM_R64_NW BOM_ROCI BOM_POCI BOM_EYE BOM_POS_METHOD BOM_PRES_METHOD NADI_LAT NADI_LON NADI_CAT NADI_WIND NADI_PRES WELLINGTON_LAT WELLINGTON_LON WELLINGTON_WIND WELLINGTON_PRES DS824_LAT DS824_LON DS824_STAGE DS824_WIND DS824_PRES TD9636_LAT TD9636_LON TD9636_STAGE TD9636_WIND TD9636_PRES TD9635_LAT TD9635_LON TD9635_WIND TD9635_PRES TD9635_ROCI NEUMANN_LAT NEUMANN_LON NEUMANN_CLASS NEUMANN_WIND NEUMANN_PRES MLC_LAT MLC_LON MLC_CLASS MLC_WIND MLC_PRES USA_GUST BOM_GUST BOM_GUST_PER REUNION_GUST REUNION_GUST_PER USA_SEAHGT USA_SEARAD_NE USA_SEARAD_SE USA_SEARAD_SW USA_SEARAD_NW STORM_SPEED STORM_DIR
1936008S15114 1936 2 SI WA NOT_NAMED 1936-01-07 23:00:00 NR -15.0000 114.300 main 676 664 __________O___ -1 -15.0000 114.300 7 17 95
1936008S15114 1936 2 SI WA NOT_NAMED 1936-01-08 00:00:00 NR -15.0270 114.599 main 664 664 __________P___ -1 -15.0270 114.599 7 11 54
1936008S15114 1936 2 SI WA NOT_NAMED 1936-01-08 01:00:00 NR -14.7908 114.598 bom main 671 660 ______O___P___ -1 -14.0000 113.700 -15.0544 114.898 7 9 66
1936008S15114 1936 2 SI WA NOT_NAMED 1936-01-08 03:00:00 NR -14.8391 115.034 main 667 637 ______P___P___ -1 -14.2919 114.120 -15.1128 115.491 7 13 102
1936008S15114 1936 2 SI WA NOT_NAMED 1936-01-08 06:00:00 NR -15.0113 115.673 main 635 594 ______P___P___ -1 -14.7328 114.760 -15.2202 116.358 7 13 110
1936008S15114 1936 2 SI WA NOT_NAMED 1936-01-08 09:00:00 NR -15.2757 116.300 main 594 567 ______P___P___ -1 -15.1828 115.418 -15.3687 117.183 7 14 114
1936008S15114 1936 2 SI WA NOT_NAMED 1936-01-08 11:00:00 NR -15.4956 116.786 main 565 549 ______P___O___ -1 -15.4911 115.873 -15.5000 117.700 7 16 116
1936008S15114 1936 2 SI WA NOT_NAMED 1936-01-08 12:00:00 NR -15.6129 117.027 main 549 482 ______P___P___ -1 -15.6485 116.106 -15.5773 117.947 7 16 119
1936008S15114 1936 2 SI WA NOT_NAMED 1936-01-08 15:00:00 NR -15.9944 117.738 main 482 415 ______P___P___ -1 -16.1361 116.834 -15.8526 118.642 7 16 121
1936008S15114 1936 2 SI WA NOT_NAMED 1936-01-08 18:00:00 NR -16.4162 118.444 main 415 331 ______P___P___ -1 -16.6521 117.614 -16.1804 119.273 7 16 123
1936008S15114 1936 2 SI WA NOT_NAMED 1936-01-08 21:00:00 NR -16.8736 119.152 main 317 269 ______P___P___ -1 -17.2024 118.457 -16.5447 119.847 7 17 124
1936008S15114 1936 2 SI WA NOT_NAMED 1936-01-08 23:00:00 NR -17.1957 119.630 main 269 241 ______P___O___ -1 -17.5914 119.060 -16.8000 120.200 7 17 130
1936008S15114 1936 2 SI WA NOT_NAMED 1936-01-09 00:00:00 TS -17.4022 119.821 main 241 211 ______P__OP___ -1 -17.7931 119.375 -17.8000 119.400 TC -16.9118 120.372 7 17 137
1936008S15114 1936 2 SI WA NOT_NAMED 1936-01-09 01:00:00 TS -17.6171 120.047 bom main 211 148 ______O__PP___ -1 -18.0000 119.700 -18.0350 119.764 TC -17.0252 120.536 7 19 128
1936008S15114 1936 2 SI WA NOT_NAMED 1936-01-09 03:00:00 TS -17.9745 120.587 main 134 47 ______P__PP___ -1 -18.4250 120.372 -18.5032 120.496 TC -17.2595 120.846 7 18 124
1936008S15114 1936 2 SI WA NOT_NAMED 1936-01-09 06:00:00 TS -18.4371 121.349 main 47 23 ______P__OP___ -1 -19.0429 121.353 -19.2000 121.600 TC 75 966 -17.6405 121.283 7 16 120
1936008S15114 1936 2 SI WA NOT_NAMED 1936-01-09 06:50:00 NR -18.4774 121.500 966 bom main 23 0 ______O___P___ -1 -19.2000 121.600 966 4 TC -17.7548 121.401 7 14 124
1936008S15114 1936 2 SI WA NOT_NAMED 1936-01-09 09:00:00 NR -18.8190 121.937 main 0 0 ______P___P___ -1 -19.5646 122.165 TC -18.0734 121.708 7 14 131
1936008S15114 1936 2 SI WA NOT_NAMED 1936-01-09 11:00:00 NR -19.1248 122.296 main 0 0 ______P___O___ -1 -19.8496 122.593 TC -18.4000 122.000 7 14 133
1936008S15114 1936 2 SI WA NOT_NAMED 1936-01-09 12:00:00 NR -19.2761 122.464 main 0 0 ______P___P___ -1 -19.9757 122.776 -18.5765 122.151 7 13 135
1936008S15114 1936 2 SI WA NOT_NAMED 1936-01-09 15:00:00 NR -19.7256 122.924 main 0 0 ______P___P___ -1 -20.2980 123.222 -19.1532 122.626 7 13 138
1936008S15114 1936 2 SI WA NOT_NAMED 1936-01-09 18:00:00 NR -20.2235 123.363 main 0 0 ______P___P___ -1 -20.5528 123.540 -19.7844 123.127 7 12 141
1936008S15114 1936 2 SI WA NOT_NAMED 1936-01-09 21:00:00 NR -20.6568 123.728 main 0 0 ______P___P___ -1 -20.7607 123.769 -20.4490 123.647 7 10 142
1936008S15114 1936 2 SI WA NOT_NAMED 1936-01-09 23:00:00 NR -20.8875 123.918 main 0 0 ______P___O___ -1 -20.8833 123.890 -20.9000 124.000 7 7 145
1936008S15114 1936 2 SI WA NOT_NAMED 1936-01-10 00:00:00 NR -20.9420 123.946 main 0 0 ______P_______ -1 -20.9420 123.946 7 4 145
1936008S15114 1936 2 SI WA NOT_NAMED 1936-01-10 01:00:00 NR -21.0000 124.000 bom main 0 ______O_______ -1 -21.0000 124.000 7 5 137

About IBTrACS Database

This database is a web-friendly format of International Best Track Archive for Climate Stewardship (IBTrACS), a global best track data archive curated by NOAA dating back to 1842.

Updated: 2021-10-27